Time;durP1;ratioP1;P1;durP2;ratioP2;P2;SDS_P1;SDS_P2;PMS_P1;PMS_P2;Temp;Humidity;BMP_temperature;BMP_pressure;BME280_temperature;BME280_humidity;BME280_pressure;Samples;Min_cycle;Max_cycle;Signal;HPM_P1;HPM_P2
2021/11/17 02:26:07;;;;;;;;;;;;;;;0.78;77.90;99012.22;5090083;28;20119;-72
2021/11/17 02:29:05;;;;;;;50.05;24.10;;;;;;;0.78;77.73;99009.53;5090780;28;19930;-73
2021/11/17 02:31:54;;;;;;;51.65;24.13;;;;;;;0.80;77.47;99002.03;5089631;28;20097;-72
2021/11/17 02:34:32;;;;;;;46.50;22.60;;;;;;;0.79;77.46;99000.38;5089467;28;20020;-72
2021/11/17 02:37:33;;;;;;;48.53;23.48;;;;;;;0.77;77.79;98999.75;5091366;28;20028;-73
2021/11/17 02:40:17;;;;;;;50.28;23.83;;;;;;;0.77;77.72;98998.94;5030579;28;20050;-72
2021/11/17 02:42:55;;;;;;;51.00;24.30;;;;;;;0.75;77.60;99004.56;5055719;28;20506;-72
2021/11/17 02:45:20;;;;;;;46.63;23.17;;;;;;;0.71;78.21;98997.94;5089551;28;20107;-72
2021/11/17 02:48:14;;;;;;;45.20;21.65;;;;;;;0.70;77.02;98996.28;5090543;28;20099;-72
2021/11/17 02:50:52;;;;;;;51.30;24.25;;;;;;;0.64;77.21;98997.16;5073090;28;20021;-72
2021/11/17 02:53:23;;;;;;;36.95;18.77;;;;;;;0.55;77.17;98994.72;5055911;28;20028;-72
2021/11/17 02:56:01;;;;;;;41.70;20.63;;;;;;;0.45;77.25;98994.38;5070723;28;20062;-72
2021/11/17 02:58:37;;;;;;;39.47;19.98;;;;;;;0.44;77.31;99001.63;5091129;28;20016;-71
2021/11/17 03:01:14;;;;;;;41.70;20.23;;;;;;;0.47;77.38;99000.38;5072858;28;20555;-72
2021/11/17 03:03:43;;;;;;;35.33;17.20;;;;;;;0.41;77.68;98998.53;5089895;28;20116;-72
2021/11/17 03:06:33;;;;;;;38.85;19.55;;;;;;;0.31;77.29;98996.31;5091436;28;20392;-71
2021/11/17 03:09:18;;;;;;;37.00;17.42;;;;;;;0.29;77.55;98993.00;5070362;28;20531;-71
2021/11/17 03:11:56;;;;;;;35.13;17.85;;;;;;;0.29;77.43;98996.53;5090550;28;20020;-71
2021/11/17 03:14:27;;;;;;;39.15;21.15;;;;;;;0.31;77.57;98998.19;5072148;28;20107;-71
2021/11/17 03:17:06;;;;;;;41.97;20.77;;;;;;;0.34;77.79;98993.19;5090058;28;20020;-71
2021/11/17 03:20:00;;;;;;;41.80;20.52;;;;;;;0.40;77.85;98997.72;5070455;28;20559;-72
2021/11/17 03:23:03;;;;;;;39.92;20.58;;;;;;;0.41;77.70;98987.75;5080132;28;20110;-72
2021/11/17 03:25:50;;;;;;;40.88;21.52;;;;;;;0.44;77.58;98990.03;5088437;28;20077;-72
2021/11/17 03:28:33;;;;;;;61.05;28.55;;;;;;;0.48;77.58;98995.78;5090035;28;20091;-72
2021/11/17 03:31:15;;;;;;;47.65;24.30;;;;;;;0.49;77.83;98990.19;5089470;28;20040;-72
2021/11/17 03:34:00;;;;;;;45.63;23.95;;;;;;;0.41;77.86;98982.34;5070732;28;20055;-72
2021/11/17 03:36:47;;;;;;;45.13;21.90;;;;;;;0.39;77.61;98979.03;5037952;28;20051;-72
2021/11/17 03:39:34;;;;;;;46.60;22.08;;;;;;;0.37;77.24;98987.38;5089496;28;20036;-72
2021/11/17 03:42:29;;;;;;;46.92;22.90;;;;;;;0.37;77.84;98976.56;5087625;28;20119;-71
2021/11/17 03:45:01;;;;;;;45.88;21.70;;;;;;;0.37;77.59;98976.56;5089332;28;20555;-72
2021/11/17 03:47:35;;;;;;;42.08;22.00;;;;;;;0.39;77.72;98979.88;5089765;28;20043;-72
2021/11/17 03:50:22;;;;;;;49.55;24.38;;;;;;;0.42;77.33;98978.59;5086793;28;20379;-71
2021/11/17 03:52:57;;;;;;;43.70;21.73;;;;;;;0.43;77.45;98974.88;5089395;28;20061;-71
2021/11/17 03:55:22;;;;;;;41.63;20.05;;;;;;;0.36;76.99;98971.38;5071570;28;20540;-72
2021/11/17 03:58:09;;;;;;;50.30;24.55;;;;;;;0.28;77.63;98975.16;5089800;28;20035;-72
2021/11/17 04:00:44;;;;;;;60.40;28.73;;;;;;;0.28;77.06;98970.59;5088753;28;20036;-71
2021/11/17 04:03:28;;;;;;;58.17;25.02;;;;;;;0.28;77.31;98973.28;5089653;28;20032;-71
2021/11/17 04:06:21;;;;;;;62.40;28.13;;;;;;;0.21;77.85;98977.06;5073632;28;20024;-71
2021/11/17 04:08:52;;;;;;;55.10;25.30;;;;;;;0.18;77.45;98974.81;5088367;28;20035;-72
2021/11/17 04:11:21;;;;;;;69.95;29.63;;;;;;;0.18;77.60;98972.94;5088455;28;20424;-72
2021/11/17 04:13:55;;;;;;;58.38;24.05;;;;;;;0.13;77.26;98968.19;5089364;28;20126;-72
2021/11/17 04:16:23;;;;;;;61.78;23.83;;;;;;;0.01;77.18;98972.59;5070127;28;20031;-72
2021/11/17 04:19:07;;;;;;;50.50;22.20;;;;;;;-0.03;76.80;98963.28;5089259;28;20028;-71
2021/11/17 04:22:00;;;;;;;42.38;20.15;;;;;;;0.02;77.42;98973.44;5088892;28;20087;-72
2021/11/17 04:24:49;;;;;;;41.42;21.17;;;;;;;0.06;77.09;98970.06;5071678;28;20116;-72
2021/11/17 04:27:21;;;;;;;37.22;17.52;;;;;;;0.09;77.17;98976.94;5070463;28;20090;-72
2021/11/17 04:30:17;;;;;;;31.35;16.15;;;;;;;0.02;77.34;98970.72;5070342;28;20058;-71
2021/11/17 04:32:45;;;;;;;43.53;20.88;;;;;;;-0.02;77.08;98965.75;5087554;28;20028;-71
2021/11/17 04:35:35;;;;;;;39.90;19.75;;;;;;;0.03;77.04;98977.78;5089492;28;20039;-71
2021/11/17 04:38:15;;;;;;;35.28;17.30;;;;;;;0.01;76.69;98974.47;5071865;28;20020;-71
2021/11/17 04:41:02;;;;;;;38.08;20.13;;;;;;;-0.02;76.96;98979.25;5086708;28;20032;-71
2021/11/17 04:43:46;;;;;;;41.65;21.08;;;;;;;0.01;77.45;98975.28;5089222;28;20028;-71
2021/11/17 04:46:21;;;;;;;41.63;20.40;;;;;;;0.05;76.89;98978.41;5091889;28;20024;-71
2021/11/17 04:49:14;;;;;;;40.17;20.13;;;;;;;0.06;77.59;98974.66;5092982;28;20400;-71
2021/11/17 04:52:00;;;;;;;44.47;21.40;;;;;;;-0.01;76.72;98966.59;5088267;28;20039;-72
2021/11/17 04:54:42;;;;;;;41.58;20.67;;;;;;;-0.08;76.84;98966.63;5090583;28;20040;-71
2021/11/17 04:57:42;;;;;;;45.30;22.02;;;;;;;-0.08;77.26;98968.50;5074370;28;20063;-71
2021/11/17 05:00:19;;;;;;;46.90;21.52;;;;;;;-0.07;77.31;98968.28;5090816;28;20031;-71
2021/11/17 05:02:59;;;;;;;48.28;24.38;;;;;;;-0.07;77.22;98970.16;5090495;28;20042;-72
2021/11/17 05:05:31;;;;;;;48.55;23.77;;;;;;;-0.07;76.87;98962.06;5074396;28;20028;-71
2021/11/17 05:08:21;;;;;;;45.50;22.35;;;;;;;-0.08;77.09;98961.22;5091946;28;20476;-71
2021/11/17 05:11:02;;;;;;;60.10;28.60;;;;;;;-0.09;76.95;98959.56;5058582;28;20039;-71
2021/11/17 05:13:39;;;;;;;66.35;28.42;;;;;;;-0.09;77.01;98961.44;5073088;28;20073;-71
2021/11/17 05:16:14;;;;;;;81.28;33.00;;;;;;;-0.08;76.47;98955.03;5092133;28;20039;-71
2021/11/17 05:18:43;;;;;;;85.43;33.70;;;;;;;-0.07;77.13;98957.50;5073714;28;20495;-71
2021/11/17 05:21:18;;;;;;;85.95;35.20;;;;;;;-0.08;76.81;98960.41;5092529;28;20035;-71
2021/11/17 05:24:13;;;;;;;78.93;34.33;;;;;;;-0.09;76.76;98956.88;5072068;28;20032;-71
2021/11/17 05:27:01;;;;;;;93.05;36.13;;;;;;;-0.04;77.19;98962.44;5062923;28;20040;-72
2021/11/17 05:29:54;;;;;;;84.30;36.47;;;;;;;0.01;76.83;98971.78;5080462;28;20109;-71
2021/11/17 05:32:47;;;;;;;92.00;38.42;;;;;;;0.09;77.23;98968.84;5076841;28;20596;-71
2021/11/17 05:35:21;;;;;;;93.10;39.05;;;;;;;0.14;76.70;98966.31;5091941;28;20028;-72
2021/11/17 05:37:59;;;;;;;89.05;36.08;;;;;;;0.16;76.73;98969.63;5091101;28;20024;-72
2021/11/17 05:40:27;;;;;;;91.07;36.65;;;;;;;0.23;76.75;98969.59;5072913;28;20052;-71
2021/11/17 05:42:55;;;;;;;67.38;30.00;;;;;;;0.25;76.74;98971.00;5089447;28;20032;-72
2021/11/17 05:45:39;;;;;;;62.10;29.58;;;;;;;0.29;76.69;98976.81;5089992;28;20048;-71
2021/11/17 05:48:04;;;;;;;60.25;24.85;;;;;;;0.31;76.52;98969.34;5090037;28;20027;-71
2021/11/17 05:50:55;;;;;;;61.95;28.85;;;;;;;0.31;76.57;98966.66;5091498;28;20028;-72
2021/11/17 05:53:38;;;;;;;63.00;27.70;;;;;;;0.36;76.43;98971.38;5044655;28;20040;-71
2021/11/17 05:56:28;;;;;;;65.60;27.98;;;;;;;0.45;76.64;98978.19;5073201;28;20480;-71
2021/11/17 05:58:53;;;;;;;;;;;;;;;0.51;76.69;98984.56;5058623;28;20055;-71
2021/11/17 06:01:43;;;;;;;95.65;37.22;;;;;;;0.60;77.08;98969.78;5090403;28;19962;-72
2021/11/17 06:04:11;;;;;;;90.53;34.38;;;;;;;0.66;76.70;98974.31;5074433;28;20035;-72
2021/11/17 06:06:37;;;;;;;64.40;28.50;;;;;;;0.68;76.71;98974.06;5091347;28;20026;-72
2021/11/17 06:09:03;;;;;;;64.20;30.85;;;;;;;0.73;77.14;98971.53;5091420;28;20376;-72
2021/11/17 06:11:33;;;;;;;68.32;32.75;;;;;;;0.77;76.89;98980.06;5091789;28;20065;-72
2021/11/17 06:14:01;;;;;;;73.03;35.53;;;;;;;0.87;76.91;98983.91;5091155;28;20046;-72
2021/11/17 06:16:29;;;;;;;69.78;35.05;;;;;;;0.93;77.03;98976.78;5091245;28;20467;-72
2021/11/17 06:18:55;;;;;;;67.70;31.45;;;;;;;0.98;76.59;98968.84;5091221;28;20043;-71
2021/11/17 06:21:22;;;;;;;76.68;36.17;;;;;;;1.02;76.44;98972.78;5091098;28;20058;-71
2021/11/17 06:23:52;;;;;;;86.18;40.88;;;;;;;1.12;77.04;98974.16;5072910;28;20436;-70
2021/11/17 06:26:25;;;;;;;77.03;37.95;;;;;;;1.22;77.41;98971.78;5090645;28;20030;-72
2021/11/17 06:28:55;;;;;;;90.38;42.25;;;;;;;1.31;76.98;98969.59;5090319;28;20149;-71
2021/11/17 06:31:22;;;;;;;89.85;43.28;;;;;;;1.39;77.01;98977.44;5090568;28;20289;-71
2021/11/17 06:33:47;;;;;;;76.35;37.33;;;;;;;1.46;76.54;98970.06;5090959;28;20085;-72
2021/11/17 06:36:13;;;;;;;78.40;37.78;;;;;;;1.52;77.30;98975.63;5090515;28;20031;-72
2021/11/17 06:38:38;;;;;;;83.35;38.85;;;;;;;1.60;76.71;98978.03;5090630;28;20020;-72
2021/11/17 06:41:04;;;;;;;77.60;36.05;;;;;;;1.62;76.33;98982.19;5072844;28;20028;-72
2021/11/17 06:43:30;;;;;;;86.07;38.85;;;;;;;1.61;76.36;98979.69;5090867;28;20107;-73
2021/11/17 06:45:58;;;;;;;101.40;42.50;;;;;;;1.59;76.36;98977.22;5090587;28;20028;-73
2021/11/17 06:48:26;;;;;;;105.38;47.08;;;;;;;1.63;76.53;98977.59;5090066;28;20039;-72
2021/11/17 06:50:53;;;;;;;106.13;47.60;;;;;;;1.70;76.54;98972.09;5072114;28;20024;-72
2021/11/17 06:53:20;;;;;;;101.35;46.83;;;;;;;1.71;76.39;98981.88;5090654;28;20477;-71
2021/11/17 06:55:46;;;;;;;91.00;42.80;;;;;;;1.74;76.77;98979.56;5091655;28;20423;-71
2021/11/17 06:58:12;;;;;;;79.72;39.20;;;;;;;1.74;76.28;98976.84;5091941;28;20027;-71
2021/11/17 07:00:43;;;;;;;61.53;28.90;;;;;;;1.76;76.70;98974.75;5090970;28;20107;-71
2021/11/17 07:03:10;;;;;;;65.32;30.30;;;;;;;1.78;76.54;98977.22;5091599;28;20750;-72
2021/11/17 07:05:36;;;;;;;59.40;29.80;;;;;;;1.75;75.81;98974.97;5091491;28;20107;-72
2021/11/17 07:08:04;;;;;;;65.15;30.80;;;;;;;1.72;76.06;98975.41;5090637;28;20052;-72
2021/11/17 07:10:31;;;;;;;69.40;32.70;;;;;;;1.71;76.33;98974.59;5073495;28;20508;-71
2021/11/17 07:12:56;;;;;;;70.05;33.35;;;;;;;1.73;76.34;98971.66;5091109;28;20024;-72
2021/11/17 07:15:24;;;;;;;86.43;39.60;;;;;;;1.74;75.90;98976.00;5091458;28;20472;-72
2021/11/17 07:17:50;;;;;;;109.63;47.05;;;;;;;1.81;76.51;98971.34;5091300;28;20114;-71
2021/11/17 07:20:15;;;;;;;130.18;54.78;;;;;;;1.92;76.23;98980.59;5091733;28;20108;-70
2021/11/17 07:22:42;;;;;;;134.82;65.38;;;;;;;2.02;76.54;98974.66;5091649;28;20089;-71
2021/11/17 07:25:09;;;;;;;136.98;66.10;;;;;;;2.11;76.39;98972.47;5091094;28;20384;-71
2021/11/17 07:27:36;;;;;;;129.55;66.68;;;;;;;2.18;76.12;98974.00;5091060;28;20028;-70
2021/11/17 07:30:05;;;;;;;118.47;60.55;;;;;;;2.29;76.31;98979.72;5090569;28;20512;-70
2021/11/17 07:32:31;;;;;;;101.05;55.97;;;;;;;2.34;76.52;98980.66;5091581;28;20073;-70
2021/11/17 07:34:56;;;;;;;89.40;48.30;;;;;;;2.41;76.00;98979.75;5091299;28;20040;-71
2021/11/17 07:37:22;;;;;;;77.05;41.53;;;;;;;2.47;76.62;98973.41;5090761;28;20491;-71
2021/11/17 07:39:48;;;;;;;69.97;37.53;;;;;;;2.50;76.33;98973.78;5091335;28;20525;-71
2021/11/17 07:42:13;;;;;;;60.63;33.75;;;;;;;2.53;76.52;98965.19;5091183;28;20039;-70
2021/11/17 07:44:39;;;;;;;68.35;34.10;;;;;;;2.55;76.39;98970.41;5073279;28;20032;-70
2021/11/17 07:47:05;;;;;;;85.57;41.78;;;;;;;2.55;76.31;98972.25;5090784;28;20103;-71
2021/11/17 07:49:31;;;;;;;80.00;40.10;;;;;;;2.58;75.95;98977.22;5092149;28;20099;-70
2021/11/17 07:51:57;;;;;;;106.00;49.08;;;;;;;2.59;75.69;98973.44;5089944;28;20166;-71
2021/11/17 07:54:25;;;;;;;111.22;53.97;;;;;;;2.68;76.50;98980.19;5089983;28;20433;-70
2021/11/17 07:56:51;;;;;;;100.78;48.05;;;;;;;2.76;76.60;98971.75;5090933;28;20115;-70
2021/11/17 07:59:22;;;;;;;99.90;47.05;;;;;;;2.76;76.38;98974.44;5090964;28;20556;-70
2021/11/17 08:01:49;;;;;;;109.40;52.53;;;;;;;2.81;76.55;98971.88;5088736;28;20024;-70
2021/11/17 08:04:17;;;;;;;87.28;42.40;;;;;;;2.89;76.81;98972.56;5086291;28;20425;-70
2021/11/17 08:06:44;;;;;;;100.47;48.38;;;;;;;2.94;76.59;98978.13;5090440;28;20024;-71
2021/11/17 08:09:11;;;;;;;115.88;58.25;;;;;;;3.01;76.33;98973.41;5090394;28;20035;-71
2021/11/17 08:11:39;;;;;;;127.70;58.03;;;;;;;3.12;76.29;98967.19;5090115;28;20034;-70
2021/11/17 08:14:05;;;;;;;96.57;47.17;;;;;;;3.23;77.08;98965.53;5090067;28;20467;-70
2021/11/17 08:16:31;;;;;;;72.88;38.30;;;;;;;3.33;76.34;98972.25;5092893;28;20077;-70
2021/11/17 08:18:56;;;;;;;74.53;39.03;;;;;;;3.36;76.04;98972.59;5072464;28;20079;-69
2021/11/17 08:21:22;;;;;;;75.05;38.25;;;;;;;3.40;76.40;98972.97;5090546;28;20033;-70
2021/11/17 08:23:47;;;;;;;73.15;37.33;;;;;;;3.45;76.23;98974.97;5073066;28;20114;-70
2021/11/17 08:26:15;;;;;;;75.25;36.95;;;;;;;3.48;76.92;98974.50;5089010;28;20028;-69
2021/11/17 08:28:41;;;;;;;80.30;40.38;;;;;;;3.58;76.55;98970.13;5089715;28;20413;-70
2021/11/17 08:31:09;;;;;;;87.07;50.05;;;;;;;3.66;76.93;98976.25;5088909;28;20048;-70
2021/11/17 08:33:35;;;;;;;90.70;47.78;;;;;;;3.72;77.03;98970.69;5088836;28;20032;-69
2021/11/17 08:36:02;;;;;;;85.03;43.88;;;;;;;3.79;76.36;98969.72;5089340;28;20065;-70
2021/11/17 08:38:29;;;;;;;83.45;42.17;;;;;;;3.86;76.48;98971.28;5088419;28;20076;-70
2021/11/17 08:41:00;;;;;;;82.18;41.70;;;;;;;3.91;76.31;98967.81;5089159;28;20039;-70
2021/11/17 08:43:28;;;;;;;89.13;44.42;;;;;;;3.96;76.84;98973.34;5088051;28;20089;-69
2021/11/17 08:45:54;;;;;;;84.10;43.88;;;;;;;4.02;76.28;98977.00;5087932;28;20024;-71
2021/11/17 08:48:22;;;;;;;82.22;42.70;;;;;;;4.09;76.72;98974.13;5089651;28;20387;-69
2021/11/17 08:50:49;;;;;;;88.82;44.30;;;;;;;4.13;76.71;98976.13;5085830;28;20503;-68
2021/11/17 08:53:17;;;;;;;81.15;42.15;;;;;;;4.17;76.90;98979.19;5087911;28;20123;-69
2021/11/17 08:55:43;;;;;;;87.22;44.58;;;;;;;4.20;76.67;98980.59;5070742;28;20051;-69
2021/11/17 08:58:11;;;;;;;85.13;42.40;;;;;;;4.26;76.44;98980.47;5088864;28;20493;-69
2021/11/17 09:00:37;;;;;;;75.40;37.90;;;;;;;4.33;76.13;98980.31;5088665;28;20105;-70
2021/11/17 09:03:05;;;;;;;65.55;35.08;;;;;;;4.36;76.55;98976.28;5089258;28;20031;-68
2021/11/17 09:05:35;;;;;;;65.70;34.00;;;;;;;4.37;76.57;98978.75;5088481;28;20032;-69
2021/11/17 09:08:01;;;;;;;79.78;38.08;;;;;;;4.34;76.40;98984.66;5088411;28;20554;-69
2021/11/17 09:10:30;;;;;;;95.35;43.67;;;;;;;4.34;76.64;98987.38;5084697;28;20020;-69
2021/11/17 09:12:56;;;;;;;98.57;44.28;;;;;;;4.36;76.52;98990.69;5088261;28;20194;-69
2021/11/17 09:15:30;;;;;;;88.82;40.30;;;;;;;4.40;76.14;98983.72;5089356;28;20025;-69
2021/11/17 09:17:56;;;;;;;86.22;41.90;;;;;;;4.49;76.27;98986.03;5087861;28;20423;-70
2021/11/17 09:20:22;;;;;;;74.43;38.72;;;;;;;4.59;76.36;98981.59;5086140;28;20028;-69
2021/11/17 09:22:48;;;;;;;65.55;34.38;;;;;;;4.65;76.50;98985.25;5089315;28;20133;-70
2021/11/17 09:25:14;;;;;;;72.00;37.25;;;;;;;4.67;76.21;98985.00;5088203;28;20666;-68
2021/11/17 09:27:40;;;;;;;71.97;40.70;;;;;;;4.68;75.83;98982.06;5088700;28;20157;-68
2021/11/17 09:30:10;;;;;;;72.78;38.80;;;;;;;4.71;76.25;98981.53;5087575;28;20107;-68
2021/11/17 09:32:36;;;;;;;73.22;40.10;;;;;;;4.74;75.92;98972.09;5091364;28;20099;-69
2021/11/17 09:35:05;;;;;;;75.60;37.72;;;;;;;4.75;76.28;98963.69;5092464;28;20142;-68
2021/11/17 09:37:31;;;;;;;72.47;38.05;;;;;;;4.79;76.15;98971.34;5092957;28;20047;-68
2021/11/17 09:39:56;;;;;;;70.05;37.83;;;;;;;4.85;75.65;98973.09;5091077;28;20032;-70
2021/11/17 09:42:23;;;;;;;137.23;56.78;;;;;;;4.77;75.70;98975.13;5090290;28;20028;-69
2021/11/17 09:44:49;;;;;;;91.10;42.22;;;;;;;4.73;75.91;98971.25;5090699;28;20035;-69
2021/11/17 09:47:18;;;;;;;92.25;42.00;;;;;;;4.75;75.83;98971.84;5092344;28;20027;-69
2021/11/17 09:49:58;;;;;;;83.70;43.35;;;;;;;4.77;75.68;98966.97;5091266;28;20039;-68
2021/11/17 09:52:41;;;;;;;104.00;49.47;;;;;;;4.80;75.43;98973.84;5091941;28;20028;-70
2021/11/17 09:55:39;;;;;;;92.63;46.50;;;;;;;4.86;76.06;98966.56;5094185;28;20057;-68
2021/11/17 09:58:16;;;;;;;96.57;47.58;;;;;;;4.89;75.96;98969.63;5089731;28;20150;-68
2021/11/17 10:00:49;;;;;;;95.47;48.33;;;;;;;4.86;75.29;98967.41;5072040;28;20525;-68
2021/11/17 10:03:53;;;;;;;118.35;53.00;;;;;;;4.87;75.77;98960.91;5088646;28;20089;-68
2021/11/17 10:14:41;;;;;;;86.13;45.15;;;;;;;5.00;75.99;98950.75;5091151;28;20032;-70
2021/11/17 10:17:44;;;;;;;90.55;46.33;;;;;;;5.02;75.50;98949.47;5071649;28;20031;-69
2021/11/17 10:20:26;;;;;;;89.60;45.03;;;;;;;5.04;75.46;98947.31;5088509;28;20088;-68
2021/11/17 10:23:18;;;;;;;81.13;40.40;;;;;;;5.05;75.42;98939.97;5092403;28;20115;-69
2021/11/17 10:26:09;;;;;;;82.38;43.03;;;;;;;5.11;76.06;98940.88;5085603;28;20059;-68
2021/11/17 10:28:53;;;;;;;75.20;39.67;;;;;;;5.13;75.52;98944.16;5077344;28;20555;-68
2021/11/17 10:31:30;;;;;;;84.70;42.15;;;;;;;5.13;75.35;98946.88;5071947;28;20056;-69
2021/11/17 10:34:11;;;;;;;85.35;42.05;;;;;;;5.13;76.08;98942.28;5090882;28;20480;-68
2021/11/17 10:36:37;;;;;;;87.72;42.50;;;;;;;5.19;75.46;98944.00;5090691;28;20034;-70
2021/11/17 10:39:11;;;;;;;98.80;46.97;;;;;;;5.25;76.15;98942.19;5090542;28;20115;-69
2021/11/17 10:41:48;;;;;;;106.13;49.33;;;;;;;5.31;75.66;98946.63;5091444;28;20157;-70
2021/11/17 10:44:13;;;;;;;78.50;39.55;;;;;;;5.36;75.97;98938.53;5090527;28;20036;-71
2021/11/17 10:46:48;;;;;;;128.38;53.75;;;;;;;5.32;75.38;98945.56;5090521;28;20542;-71
2021/11/17 10:49:17;;;;;;;124.35;56.97;;;;;;;5.36;76.01;98937.69;5090341;28;20110;-72
2021/11/17 10:52:01;;;;;;;109.22;51.38;;;;;;;5.42;75.70;98942.16;5071740;28;20103;-72
2021/11/17 10:54:30;;;;;;;103.80;49.78;;;;;;;5.48;75.77;98933.00;5090542;28;20682;-72
2021/11/17 10:57:08;;;;;;;88.78;45.75;;;;;;;5.49;75.89;98929.19;5091836;28;20031;-73
2021/11/17 10:59:35;;;;;;;96.38;47.38;;;;;;;5.56;76.05;98936.34;5090969;28;20503;-72
2021/11/17 11:02:01;;;;;;;110.47;52.25;;;;;;;5.58;75.70;98928.75;5091003;28;20081;-72
2021/11/17 11:04:51;;;;;;;102.32;48.58;;;;;;;5.62;75.62;98932.63;5090590;28;20143;-75
2021/11/17 11:07:16;;;;;;;;;;;;;;;5.60;75.28;98938.31;5081012;28;20060;-73
2021/11/17 11:10:11;;;;;;;82.40;43.25;;;;;;;5.61;75.74;98931.78;5091225;28;19955;-75
2021/11/17 11:12:38;;;;;;;88.72;46.20;;;;;;;5.58;75.43;98937.75;5089776;28;20032;-75
2021/11/17 11:15:33;;;;;;;82.15;42.88;;;;;;;5.60;75.54;98923.91;5091462;28;20040;-70
2021/11/17 11:18:10;;;;;;;97.25;47.42;;;;;;;5.56;75.46;98930.91;5057883;28;20553;-69
2021/11/17 11:20:48;;;;;;;82.90;42.47;;;;;;;5.57;75.68;98918.97;5068572;28;20032;-67
2021/11/17 11:23:28;;;;;;;98.75;51.70;;;;;;;5.61;75.74;98914.66;5089499;28;20115;-69
2021/11/17 11:26:16;;;;;;;94.57;47.35;;;;;;;5.64;75.53;98917.69;5089188;28;20020;-69
2021/11/17 11:28:55;;;;;;;93.47;46.83;;;;;;;5.66;75.69;98928.34;5090431;28;20543;-70
2021/11/17 11:31:30;;;;;;;91.35;46.50;;;;;;;5.72;75.71;98918.31;5072448;28;20052;-71
2021/11/17 11:33:55;;;;;;;101.20;48.15;;;;;;;5.79;75.70;98921.69;5090942;28;20028;-72
2021/11/17 11:36:32;;;;;;;83.97;41.45;;;;;;;5.79;75.93;98918.97;5090939;28;20419;-71
2021/11/17 11:38:58;;;;;;;79.20;41.50;;;;;;;5.78;75.68;98920.03;5090220;28;20039;-71
2021/11/17 11:41:29;;;;;;;94.72;46.78;;;;;;;5.76;75.40;98930.34;5089354;28;20024;-71
2021/11/17 11:44:16;;;;;;;99.70;49.50;;;;;;;5.77;75.82;98929.28;5089286;28;20020;-71
2021/11/17 11:46:44;;;;;;;111.22;51.20;;;;;;;5.82;75.44;98927.44;5086963;28;20494;-72
2021/11/17 11:49:37;;;;;;;91.28;48.15;;;;;;;5.89;75.86;98919.09;5089585;28;20033;-73
2021/11/17 11:52:24;;;;;;;103.07;49.75;;;;;;;5.91;75.60;98927.81;5088777;28;20040;-70
2021/11/17 11:54:56;;;;;;;90.10;44.70;;;;;;;5.94;75.30;98926.50;5080875;28;20024;-69
2021/11/17 11:57:27;;;;;;;99.78;50.05;;;;;;;5.94;75.64;98921.03;5086990;28;20115;-69
2021/11/17 12:00:12;;;;;;;122.97;57.85;;;;;;;5.92;75.73;98920.47;5086750;28;20028;-68
2021/11/17 12:03:06;;;;;;;122.95;58.70;;;;;;;5.93;75.54;98922.13;5091092;28;20233;-69
2021/11/17 12:05:40;;;;;;;143.85;63.78;;;;;;;5.96;75.70;98921.63;5085553;28;20032;-68
2021/11/17 12:08:13;;;;;;;150.27;64.80;;;;;;;6.01;75.81;98923.59;5087877;28;20034;-68
2021/11/17 12:10:46;;;;;;;148.82;65.05;;;;;;;6.06;75.52;98923.66;5089874;28;20032;-68
2021/11/17 12:13:17;;;;;;;158.23;66.38;;;;;;;6.12;75.67;98930.81;5083169;28;20051;-69
2021/11/17 12:16:03;;;;;;;143.57;59.70;;;;;;;6.17;75.72;98919.97;5089351;28;20058;-69
2021/11/17 12:18:31;;;;;;;121.90;53.25;;;;;;;6.17;75.78;98919.13;5073921;28;20027;-69
2021/11/17 12:20:59;;;;;;;127.60;57.50;;;;;;;6.20;75.79;98921.34;5089544;28;20448;-71
2021/11/17 12:23:31;;;;;;;126.55;58.05;;;;;;;6.17;75.40;98925.44;5089333;28;20038;-69
2021/11/17 12:26:11;;;;;;;111.30;50.92;;;;;;;6.14;75.28;98915.03;5085983;28;20039;-68
2021/11/17 12:29:11;;;;;;;96.07;44.45;;;;;;;6.08;75.35;98908.72;5088753;28;20027;-68
2021/11/17 12:31:48;;;;;;;89.80;40.97;;;;;;;6.06;75.23;98904.59;5061852;28;20407;-69
2021/11/17 12:34:25;;;;;;;85.57;42.03;;;;;;;6.01;75.33;98909.97;5089704;28;20035;-69
2021/11/17 12:37:02;;;;;;;77.05;37.20;;;;;;;6.02;75.28;98912.47;5089886;28;20028;-68
2021/11/17 12:39:32;;;;;;;72.55;35.58;;;;;;;6.00;75.28;98902.84;5089059;28;20020;-68
2021/11/17 12:42:01;;;;;;;70.15;34.58;;;;;;;6.02;75.39;98900.72;5089194;28;20530;-68
2021/11/17 12:44:43;;;;;;;55.55;28.13;;;;;;;5.99;74.69;98907.50;5088919;28;20058;-68
2021/11/17 12:47:34;;;;;;;51.17;25.60;;;;;;;5.94;74.30;98902.00;5090028;28;20259;-68
2021/11/17 12:50:08;;;;;;;51.50;25.40;;;;;;;5.92;74.29;98895.97;5073024;28;20042;-68
2021/11/17 12:52:43;;;;;;;47.55;24.55;;;;;;;5.92;74.07;98891.34;5088604;28;20034;-67
2021/11/17 12:55:09;;;;;;;44.50;21.50;;;;;;;5.89;74.13;98894.59;5088190;28;20046;-67
2021/11/17 12:57:54;;;;;;;44.25;23.77;;;;;;;5.88;73.98;98894.84;5088478;28;20020;-68
2021/11/17 13:00:20;;;;;;;41.22;21.77;;;;;;;5.86;73.90;98900.56;5088189;28;20024;-68
2021/11/17 13:02:51;;;;;;;37.50;22.05;;;;;;;5.86;74.05;98902.44;5088913;28;20042;-69
2021/11/17 13:05:36;;;;;;;43.08;22.58;;;;;;;5.83;74.20;98901.06;5090440;28;20057;-68
2021/11/17 13:08:02;;;;;;;41.78;22.38;;;;;;;5.78;73.93;98901.00;5093481;28;20426;-69
2021/11/17 13:10:35;;;;;;;40.40;21.02;;;;;;;5.77;74.04;98900.16;5095117;28;20076;-69
2021/11/17 13:13:22;;;;;;;50.65;27.40;;;;;;;5.76;74.26;98900.41;5092070;28;20111;-69
2021/11/17 13:15:59;;;;;;;54.65;29.23;;;;;;;5.78;74.42;98909.16;5095397;28;20076;-68
2021/11/17 13:18:35;;;;;;;45.25;24.52;;;;;;;5.77;74.42;98896.63;5092209;28;20032;-69
2021/11/17 13:21:11;;;;;;;40.42;20.92;;;;;;;5.79;74.28;98898.00;5091683;28;20134;-70
2021/11/17 13:23:46;;;;;;;45.05;22.88;;;;;;;5.77;74.26;98899.34;5092055;28;20111;-70
2021/11/17 13:26:31;;;;;;;43.83;23.95;;;;;;;5.76;74.60;98898.50;5091715;28;20074;-68
2021/11/17 13:29:36;;;;;;;42.08;22.38;;;;;;;5.76;74.58;98900.41;5094350;28;20097;-68
2021/11/17 13:32:04;;;;;;;44.53;23.02;;;;;;;5.75;74.47;98902.31;5050081;28;20139;-68
2021/11/17 13:34:41;;;;;;;50.75;25.52;;;;;;;5.71;74.74;98894.91;5092119;28;20161;-69
2021/11/17 13:37:40;;;;;;;54.13;28.27;;;;;;;5.70;74.84;98898.72;5092819;28;20035;-68
2021/11/17 13:40:06;;;;;;;49.80;25.40;;;;;;;5.68;74.75;98896.25;5091470;28;20040;-68
2021/11/17 13:42:32;;;;;;;59.05;32.75;;;;;;;5.67;75.05;98900.06;5091788;28;20071;-68
2021/11/17 13:44:59;;;;;;;60.08;32.83;;;;;;;5.66;74.79;98899.22;5092077;28;20047;-69
2021/11/17 13:47:28;;;;;;;60.60;34.22;;;;;;;5.66;75.41;98899.22;5091091;28;20047;-69
2021/11/17 13:49:56;;;;;;;80.63;45.55;;;;;;;5.68;75.24;98889.97;5089845;28;20024;-69
2021/11/17 13:52:32;;;;;;;74.35;41.85;;;;;;;5.66;75.06;98882.88;5090380;28;20028;-68
2021/11/17 13:54:59;;;;;;;59.75;31.95;;;;;;;5.64;75.42;98890.47;5091528;28;20040;-69
2021/11/17 13:57:25;;;;;;;73.43;40.42;;;;;;;5.62;75.59;98884.47;5091431;28;20028;-67
2021/11/17 13:59:51;;;;;;;54.38;30.10;;;;;;;5.63;75.36;98888.03;5091516;28;20030;-69
2021/11/17 14:02:18;;;;;;;59.28;31.83;;;;;;;5.63;75.24;98891.56;5093466;28;20028;-69
2021/11/17 14:04:43;;;;;;;64.28;35.42;;;;;;;5.63;75.17;98894.28;5090676;28;20075;-68
2021/11/17 14:07:14;;;;;;;55.80;31.00;;;;;;;5.65;75.29;98894.03;5093018;28;20035;-68
2021/11/17 14:09:40;;;;;;;62.13;33.22;;;;;;;5.64;75.51;98890.47;5091224;28;20075;-68
2021/11/17 14:12:06;;;;;;;56.75;30.88;;;;;;;5.66;75.20;98882.88;5090433;28;20024;-68
2021/11/17 14:14:33;;;;;;;48.38;27.23;;;;;;;5.66;75.66;98888.31;5073061;28;20432;-68
2021/11/17 14:16:59;;;;;;;50.40;27.80;;;;;;;5.65;75.55;98881.25;5090907;28;20073;-68
2021/11/17 14:19:25;;;;;;;57.42;31.80;;;;;;;5.63;75.37;98886.09;5091034;28;20028;-68
2021/11/17 14:21:50;;;;;;;62.75;32.88;;;;;;;5.61;75.47;98880.09;5071390;28;20059;-69
2021/11/17 14:24:16;;;;;;;62.40;33.53;;;;;;;5.60;75.31;98877.63;5092351;28;20056;-69
2021/11/17 14:26:44;;;;;;;60.65;32.70;;;;;;;5.60;75.97;98885.81;5092335;28;20035;-68
2021/11/17 14:29:19;;;;;;;57.92;28.98;;;;;;;5.61;75.68;98890.16;5091243;28;20103;-69
2021/11/17 14:31:48;;;;;;;57.90;29.48;;;;;;;5.58;75.82;98890.69;5091665;28;20048;-68